Belleville, Mississippi
Current Conditions -  °F | °C
As of 3:53 PM on Tuesday 21 Oct 2014 (Local Time) from KHBG Reporting Station
Clear Clear  
Wind Chill: 80°   Ceiling: Unl
Heat Index: 80°   Visibility: 10mi
Dew Point: 54°   Wind: 8mph
Humidity: 40%   Direction: 350°N
Pressure: 30"   Gusts: 17mph
Location:  31.0667°N, 89.05°W
Report Text: KHBG 212053Z AUTO 35007G15KT 10SM CLR 27/12 A3000 RMK AO2 SLP155 T02670122 56019
Loading
Personal Weather Stations






























Interactive Weather Map
Tropical Storm Tracking
New forecast layout! Learn more

10-Day Weather Forecast

Advertisements
Track Severe Weather on mobile